sensor_id;sensor_type;location;lat;lon;timestamp;P1;durP1;ratioP1;P2;durP2;ratioP2
62401;SDS011;48440;51.224;22.506;2023-08-17T00:00:06;26.98;;;18.67;;
62401;SDS011;48440;51.224;22.506;2023-08-17T00:02:35;34.47;;;19.92;;
62401;SDS011;48440;51.224;22.506;2023-08-17T00:05:00;31.25;;;18.10;;
62401;SDS011;48440;51.224;22.506;2023-08-17T00:07:26;31.52;;;19.30;;
62401;SDS011;48440;51.224;22.506;2023-08-17T00:09:51;31.83;;;19.00;;
62401;SDS011;48440;51.224;22.506;2023-08-17T00:12:17;29.98;;;17.67;;
62401;SDS011;48440;51.224;22.506;2023-08-17T00:14:42;29.65;;;19.13;;
62401;SDS011;48440;51.224;22.506;2023-08-17T00:17:07;27.23;;;18.88;;
62401;SDS011;48440;51.224;22.506;2023-08-17T00:19:33;25.13;;;18.25;;
62401;SDS011;48440;51.224;22.506;2023-08-17T00:21:58;28.17;;;18.27;;
62401;SDS011;48440;51.224;22.506;2023-08-17T00:24:24;24.05;;;17.40;;
62401;SDS011;48440;51.224;22.506;2023-08-17T00:26:49;24.63;;;17.30;;
62401;SDS011;48440;51.224;22.506;2023-08-17T00:29:15;23.42;;;16.83;;
62401;SDS011;48440;51.224;22.506;2023-08-17T00:31:41;22.92;;;16.92;;
62401;SDS011;48440;51.224;22.506;2023-08-17T00:34:06;25.27;;;16.85;;
62401;SDS011;48440;51.224;22.506;2023-08-17T00:36:32;22.00;;;16.42;;
62401;SDS011;48440;51.224;22.506;2023-08-17T00:38:57;23.48;;;15.25;;
62401;SDS011;48440;51.224;22.506;2023-08-17T00:41:23;27.73;;;16.55;;
62401;SDS011;48440;51.224;22.506;2023-08-17T00:43:48;26.75;;;16.55;;
62401;SDS011;48440;51.224;22.506;2023-08-17T00:46:14;24.23;;;15.45;;
62401;SDS011;48440;51.224;22.506;2023-08-17T00:48:40;23.60;;;15.57;;
62401;SDS011;48440;51.224;22.506;2023-08-17T00:51:06;25.63;;;15.40;;
62401;SDS011;48440;51.224;22.506;2023-08-17T00:53:31;20.63;;;14.57;;
62401;SDS011;48440;51.224;22.506;2023-08-17T00:55:57;19.20;;;15.25;;
62401;SDS011;48440;51.224;22.506;2023-08-17T00:58:25;20.65;;;15.20;;
62401;SDS011;48440;51.224;22.506;2023-08-17T01:00:53;23.48;;;16.10;;
62401;SDS011;48440;51.224;22.506;2023-08-17T01:03:18;18.33;;;15.20;;
62401;SDS011;48440;51.224;22.506;2023-08-17T01:05:46;26.42;;;16.30;;
62401;SDS011;48440;51.224;22.506;2023-08-17T01:08:11;23.15;;;15.82;;
62401;SDS011;48440;51.224;22.506;2023-08-17T01:10:39;21.55;;;16.20;;
62401;SDS011;48440;51.224;22.506;2023-08-17T01:13:15;19.05;;;16.08;;
62401;SDS011;48440;51.224;22.506;2023-08-17T01:15:46;26.20;;;16.27;;
62401;SDS011;48440;51.224;22.506;2023-08-17T01:18:26;22.75;;;15.50;;
62401;SDS011;48440;51.224;22.506;2023-08-17T01:20:57;25.70;;;17.00;;
62401;SDS011;48440;51.224;22.506;2023-08-17T01:23:24;21.67;;;16.85;;
62401;SDS011;48440;51.224;22.506;2023-08-17T01:25:49;26.38;;;16.50;;
62401;SDS011;48440;51.224;22.506;2023-08-17T01:28:15;22.13;;;16.35;;
62401;SDS011;48440;51.224;22.506;2023-08-17T01:30:53;25.90;;;16.90;;
62401;SDS011;48440;51.224;22.506;2023-08-17T01:33:31;23.93;;;17.27;;
62401;SDS011;48440;51.224;22.506;2023-08-17T01:36:04;21.88;;;16.92;;
62401;SDS011;48440;51.224;22.506;2023-08-17T01:38:36;23.05;;;16.48;;
62401;SDS011;48440;51.224;22.506;2023-08-17T01:41:03;22.98;;;16.98;;
62401;SDS011;48440;51.224;22.506;2023-08-17T01:43:30;23.70;;;17.60;;
62401;SDS011;48440;51.224;22.506;2023-08-17T01:45:55;23.52;;;16.17;;
62401;SDS011;48440;51.224;22.506;2023-08-17T01:48:21;25.35;;;18.05;;
62401;SDS011;48440;51.224;22.506;2023-08-17T01:50:46;23.38;;;18.20;;
62401;SDS011;48440;51.224;22.506;2023-08-17T01:53:12;30.98;;;18.17;;
62401;SDS011;48440;51.224;22.506;2023-08-17T01:55:37;23.67;;;18.00;;
62401;SDS011;48440;51.224;22.506;2023-08-17T01:58:03;26.63;;;18.20;;
62401;SDS011;48440;51.224;22.506;2023-08-17T02:00:28;24.55;;;18.92;;
62401;SDS011;48440;51.224;22.506;2023-08-17T02:02:54;26.60;;;19.58;;
62401;SDS011;48440;51.224;22.506;2023-08-17T02:05:19;25.48;;;19.42;;
62401;SDS011;48440;51.224;22.506;2023-08-17T02:07:45;29.85;;;19.95;;
62401;SDS011;48440;51.224;22.506;2023-08-17T02:10:10;32.42;;;20.50;;
62401;SDS011;48440;51.224;22.506;2023-08-17T02:12:36;29.30;;;21.00;;
62401;SDS011;48440;51.224;22.506;2023-08-17T02:15:01;30.23;;;20.92;;
62401;SDS011;48440;51.224;22.506;2023-08-17T02:17:27;30.77;;;21.20;;
62401;SDS011;48440;51.224;22.506;2023-08-17T02:19:52;30.33;;;20.70;;
62401;SDS011;48440;51.224;22.506;2023-08-17T02:22:17;33.40;;;21.13;;
62401;SDS011;48440;51.224;22.506;2023-08-17T02:24:43;34.83;;;21.83;;
62401;SDS011;48440;51.224;22.506;2023-08-17T02:27:09;30.90;;;22.58;;
62401;SDS011;48440;51.224;22.506;2023-08-17T02:29:34;30.00;;;21.23;;
62401;SDS011;48440;51.224;22.506;2023-08-17T02:32:00;32.05;;;21.98;;
62401;SDS011;48440;51.224;22.506;2023-08-17T02:34:25;29.02;;;21.20;;
62401;SDS011;48440;51.224;22.506;2023-08-17T02:36:50;30.02;;;22.95;;
62401;SDS011;48440;51.224;22.506;2023-08-17T02:39:16;33.10;;;22.70;;
62401;SDS011;48440;51.224;22.506;2023-08-17T02:41:41;40.30;;;23.88;;
62401;SDS011;48440;51.224;22.506;2023-08-17T02:44:07;33.78;;;23.20;;
62401;SDS011;48440;51.224;22.506;2023-08-17T02:46:32;36.47;;;23.45;;
62401;SDS011;48440;51.224;22.506;2023-08-17T02:48:58;35.47;;;23.58;;
62401;SDS011;48440;51.224;22.506;2023-08-17T02:51:23;33.55;;;24.38;;
62401;SDS011;48440;51.224;22.506;2023-08-17T02:53:49;33.75;;;23.95;;
62401;SDS011;48440;51.224;22.506;2023-08-17T02:56:14;40.33;;;25.15;;
62401;SDS011;48440;51.224;22.506;2023-08-17T02:58:40;37.60;;;25.23;;
62401;SDS011;48440;51.224;22.506;2023-08-17T03:01:06;35.95;;;24.63;;
62401;SDS011;48440;51.224;22.506;2023-08-17T03:03:32;35.03;;;25.33;;
62401;SDS011;48440;51.224;22.506;2023-08-17T03:05:57;40.00;;;25.95;;
62401;SDS011;48440;51.224;22.506;2023-08-17T03:08:22;40.53;;;25.52;;
62401;SDS011;48440;51.224;22.506;2023-08-17T03:10:48;41.70;;;26.52;;
62401;SDS011;48440;51.224;22.506;2023-08-17T03:13:13;36.38;;;26.45;;
62401;SDS011;48440;51.224;22.506;2023-08-17T03:15:39;42.30;;;25.58;;
62401;SDS011;48440;51.224;22.506;2023-08-17T03:18:05;39.47;;;26.88;;
62401;SDS011;48440;51.224;22.506;2023-08-17T03:20:31;40.83;;;27.25;;
62401;SDS011;48440;51.224;22.506;2023-08-17T03:22:56;42.22;;;26.77;;
62401;SDS011;48440;51.224;22.506;2023-08-17T03:25:22;43.25;;;26.90;;
62401;SDS011;48440;51.224;22.506;2023-08-17T03:27:47;49.17;;;27.60;;
62401;SDS011;48440;51.224;22.506;2023-08-17T03:30:13;47.25;;;28.00;;
62401;SDS011;48440;51.224;22.506;2023-08-17T03:32:38;48.88;;;28.00;;
62401;SDS011;48440;51.224;22.506;2023-08-17T03:35:04;44.45;;;27.88;;
62401;SDS011;48440;51.224;22.506;2023-08-17T03:37:30;45.15;;;27.38;;
62401;SDS011;48440;51.224;22.506;2023-08-17T03:39:55;51.88;;;29.67;;
62401;SDS011;48440;51.224;22.506;2023-08-17T03:42:20;46.20;;;28.73;;
62401;SDS011;48440;51.224;22.506;2023-08-17T03:44:46;49.80;;;28.95;;
62401;SDS011;48440;51.224;22.506;2023-08-17T03:47:13;48.28;;;27.85;;
62401;SDS011;48440;51.224;22.506;2023-08-17T03:49:39;50.05;;;29.23;;
62401;SDS011;48440;51.224;22.506;2023-08-17T03:52:05;49.72;;;30.23;;
62401;SDS011;48440;51.224;22.506;2023-08-17T03:54:31;47.65;;;30.80;;
62401;SDS011;48440;51.224;22.506;2023-08-17T03:56:56;53.53;;;31.13;;
62401;SDS011;48440;51.224;22.506;2023-08-17T03:59:22;50.90;;;31.67;;
62401;SDS011;48440;51.224;22.506;2023-08-17T04:01:47;50.20;;;30.58;;
62401;SDS011;48440;51.224;22.506;2023-08-17T04:04:15;49.40;;;31.13;;
62401;SDS011;48440;51.224;22.506;2023-08-17T04:06:40;53.85;;;30.80;;
62401;SDS011;48440;51.224;22.506;2023-08-17T04:09:06;53.42;;;31.67;;
62401;SDS011;48440;51.224;22.506;2023-08-17T04:11:34;51.17;;;31.98;;
62401;SDS011;48440;51.224;22.506;2023-08-17T04:14:01;58.03;;;32.25;;
62401;SDS011;48440;51.224;22.506;2023-08-17T04:16:27;55.03;;;33.20;;
62401;SDS011;48440;51.224;22.506;2023-08-17T04:18:52;48.88;;;31.95;;
62401;SDS011;48440;51.224;22.506;2023-08-17T04:21:17;52.22;;;32.03;;
62401;SDS011;48440;51.224;22.506;2023-08-17T04:23:43;53.20;;;32.97;;
62401;SDS011;48440;51.224;22.506;2023-08-17T04:26:08;57.00;;;34.28;;
62401;SDS011;48440;51.224;22.506;2023-08-17T04:28:34;58.80;;;33.45;;
62401;SDS011;48440;51.224;22.506;2023-08-17T04:30:59;59.05;;;33.67;;
62401;SDS011;48440;51.224;22.506;2023-08-17T04:33:25;55.63;;;34.72;;
62401;SDS011;48440;51.224;22.506;2023-08-17T04:35:50;58.38;;;33.40;;
62401;SDS011;48440;51.224;22.506;2023-08-17T04:38:16;56.53;;;34.40;;
62401;SDS011;48440;51.224;22.506;2023-08-17T04:40:41;56.22;;;34.67;;
62401;SDS011;48440;51.224;22.506;2023-08-17T04:43:07;60.70;;;35.33;;
62401;SDS011;48440;51.224;22.506;2023-08-17T04:45:33;56.80;;;35.03;;
62401;SDS011;48440;51.224;22.506;2023-08-17T04:47:58;69.90;;;36.25;;
62401;SDS011;48440;51.224;22.506;2023-08-17T04:50:23;59.00;;;35.85;;
62401;SDS011;48440;51.224;22.506;2023-08-17T04:52:49;63.45;;;35.83;;
62401;SDS011;48440;51.224;22.506;2023-08-17T04:55:14;61.65;;;36.85;;
62401;SDS011;48440;51.224;22.506;2023-08-17T04:57:40;66.95;;;36.47;;
62401;SDS011;48440;51.224;22.506;2023-08-17T05:00:05;67.35;;;37.85;;
62401;SDS011;48440;51.224;22.506;2023-08-17T05:02:35;66.05;;;36.50;;
62401;SDS011;48440;51.224;22.506;2023-08-17T05:05:02;60.40;;;37.55;;
62401;SDS011;48440;51.224;22.506;2023-08-17T05:07:31;60.45;;;36.28;;
62401;SDS011;48440;51.224;22.506;2023-08-17T05:09:57;64.70;;;36.22;;
62401;SDS011;48440;51.224;22.506;2023-08-17T05:12:23;71.75;;;38.90;;
62401;SDS011;48440;51.224;22.506;2023-08-17T05:14:48;74.70;;;36.25;;
62401;SDS011;48440;51.224;22.506;2023-08-17T05:17:13;68.38;;;37.50;;
62401;SDS011;48440;51.224;22.506;2023-08-17T05:19:39;67.85;;;36.72;;
62401;SDS011;48440;51.224;22.506;2023-08-17T05:22:12;70.22;;;38.47;;
62401;SDS011;48440;51.224;22.506;2023-08-17T05:24:38;66.35;;;38.35;;
62401;SDS011;48440;51.224;22.506;2023-08-17T05:27:04;75.20;;;39.30;;
62401;SDS011;48440;51.224;22.506;2023-08-17T05:29:29;62.97;;;38.53;;
62401;SDS011;48440;51.224;22.506;2023-08-17T05:31:57;69.68;;;37.42;;
62401;SDS011;48440;51.224;22.506;2023-08-17T05:34:22;75.85;;;39.45;;
62401;SDS011;48440;51.224;22.506;2023-08-17T05:36:48;65.85;;;38.83;;
62401;SDS011;48440;51.224;22.506;2023-08-17T05:39:13;73.22;;;40.05;;
62401;SDS011;48440;51.224;22.506;2023-08-17T05:41:39;68.28;;;37.78;;
62401;SDS011;48440;51.224;22.506;2023-08-17T05:44:04;82.05;;;40.25;;
62401;SDS011;48440;51.224;22.506;2023-08-17T05:46:32;73.85;;;38.72;;
62401;SDS011;48440;51.224;22.506;2023-08-17T05:49:00;75.75;;;40.10;;
62401;SDS011;48440;51.224;22.506;2023-08-17T05:51:26;74.10;;;39.05;;
62401;SDS011;48440;51.224;22.506;2023-08-17T05:53:52;72.47;;;40.72;;
62401;SDS011;48440;51.224;22.506;2023-08-17T05:56:17;82.63;;;42.90;;
62401;SDS011;48440;51.224;22.506;2023-08-17T05:58:42;80.22;;;39.85;;
62401;SDS011;48440;51.224;22.506;2023-08-17T06:01:09;76.32;;;40.00;;
62401;SDS011;48440;51.224;22.506;2023-08-17T06:03:36;73.72;;;39.25;;
62401;SDS011;48440;51.224;22.506;2023-08-17T06:06:02;68.53;;;39.78;;
62401;SDS011;48440;51.224;22.506;2023-08-17T06:08:28;74.85;;;38.20;;
62401;SDS011;48440;51.224;22.506;2023-08-17T06:10:54;68.40;;;39.35;;
62401;SDS011;48440;51.224;22.506;2023-08-17T06:13:20;73.00;;;38.83;;
62401;SDS011;48440;51.224;22.506;2023-08-17T06:15:45;75.55;;;40.60;;
62401;SDS011;48440;51.224;22.506;2023-08-17T06:18:11;70.65;;;38.08;;
62401;SDS011;48440;51.224;22.506;2023-08-17T06:20:36;70.00;;;38.55;;
62401;SDS011;48440;51.224;22.506;2023-08-17T06:23:01;77.13;;;39.15;;
62401;SDS011;48440;51.224;22.506;2023-08-17T06:25:30;79.38;;;38.42;;
62401;SDS011;48440;51.224;22.506;2023-08-17T06:27:55;75.22;;;38.03;;
62401;SDS011;48440;51.224;22.506;2023-08-17T06:30:21;82.55;;;38.95;;
62401;SDS011;48440;51.224;22.506;2023-08-17T06:32:47;69.57;;;37.20;;
62401;SDS011;48440;51.224;22.506;2023-08-17T06:35:12;78.47;;;41.05;;
62401;SDS011;48440;51.224;22.506;2023-08-17T06:37:38;73.82;;;38.25;;
62401;SDS011;48440;51.224;22.506;2023-08-17T06:40:04;98.05;;;40.17;;
62401;SDS011;48440;51.224;22.506;2023-08-17T06:42:31;81.15;;;39.92;;
62401;SDS011;48440;51.224;22.506;2023-08-17T06:44:56;80.45;;;40.53;;
62401;SDS011;48440;51.224;22.506;2023-08-17T06:47:22;84.22;;;39.13;;
62401;SDS011;48440;51.224;22.506;2023-08-17T06:49:47;87.28;;;38.35;;
62401;SDS011;48440;51.224;22.506;2023-08-17T06:52:13;89.53;;;40.95;;
62401;SDS011;48440;51.224;22.506;2023-08-17T06:54:38;84.50;;;40.90;;
62401;SDS011;48440;51.224;22.506;2023-08-17T06:57:04;84.80;;;39.78;;
62401;SDS011;48440;51.224;22.506;2023-08-17T06:59:30;73.65;;;37.80;;
62401;SDS011;48440;51.224;22.506;2023-08-17T07:01:56;81.28;;;41.08;;
62401;SDS011;48440;51.224;22.506;2023-08-17T07:04:22;80.03;;;39.00;;
62401;SDS011;48440;51.224;22.506;2023-08-17T07:06:48;80.70;;;38.53;;
62401;SDS011;48440;51.224;22.506;2023-08-17T07:09:14;87.32;;;37.53;;
62401;SDS011;48440;51.224;22.506;2023-08-17T07:11:40;79.68;;;37.13;;
62401;SDS011;48440;51.224;22.506;2023-08-17T07:14:06;76.65;;;37.72;;
62401;SDS011;48440;51.224;22.506;2023-08-17T07:16:31;69.88;;;34.53;;
62401;SDS011;48440;51.224;22.506;2023-08-17T07:18:57;76.45;;;34.42;;
62401;SDS011;48440;51.224;22.506;2023-08-17T07:21:23;65.22;;;33.50;;
62401;SDS011;48440;51.224;22.506;2023-08-17T07:23:49;60.22;;;33.28;;
62401;SDS011;48440;51.224;22.506;2023-08-17T07:26:15;64.13;;;33.13;;
62401;SDS011;48440;51.224;22.506;2023-08-17T07:28:43;69.25;;;33.53;;
62401;SDS011;48440;51.224;22.506;2023-08-17T07:31:09;65.07;;;32.63;;
62401;SDS011;48440;51.224;22.506;2023-08-17T07:33:34;63.58;;;31.77;;
62401;SDS011;48440;51.224;22.506;2023-08-17T07:35:59;61.35;;;31.45;;
62401;SDS011;48440;51.224;22.506;2023-08-17T07:38:25;58.60;;;30.50;;
62401;SDS011;48440;51.224;22.506;2023-08-17T07:40:51;54.00;;;28.35;;
62401;SDS011;48440;51.224;22.506;2023-08-17T07:43:16;53.65;;;29.00;;
62401;SDS011;48440;51.224;22.506;2023-08-17T07:45:42;57.88;;;29.92;;
62401;SDS011;48440;51.224;22.506;2023-08-17T07:48:07;56.42;;;28.17;;
62401;SDS011;48440;51.224;22.506;2023-08-17T07:50:33;57.85;;;27.33;;
62401;SDS011;48440;51.224;22.506;2023-08-17T07:52:58;50.03;;;26.58;;
62401;SDS011;48440;51.224;22.506;2023-08-17T07:55:25;47.00;;;25.77;;
62401;SDS011;48440;51.224;22.506;2023-08-17T07:57:51;57.72;;;27.33;;
62401;SDS011;48440;51.224;22.506;2023-08-17T08:00:16;55.95;;;25.35;;
62401;SDS011;48440;51.224;22.506;2023-08-17T08:02:42;50.33;;;24.50;;
62401;SDS011;48440;51.224;22.506;2023-08-17T08:05:08;54.38;;;23.98;;
62401;SDS011;48440;51.224;22.506;2023-08-17T08:07:33;43.17;;;22.40;;
62401;SDS011;48440;51.224;22.506;2023-08-17T08:09:59;46.05;;;22.58;;
62401;SDS011;48440;51.224;22.506;2023-08-17T08:12:24;38.17;;;21.13;;
62401;SDS011;48440;51.224;22.506;2023-08-17T08:14:50;42.00;;;21.00;;
62401;SDS011;48440;51.224;22.506;2023-08-17T08:17:16;40.20;;;22.70;;
62401;SDS011;48440;51.224;22.506;2023-08-17T08:19:41;40.88;;;22.27;;
62401;SDS011;48440;51.224;22.506;2023-08-17T08:22:07;46.17;;;23.58;;
62401;SDS011;48440;51.224;22.506;2023-08-17T08:24:32;45.22;;;22.25;;
62401;SDS011;48440;51.224;22.506;2023-08-17T08:26:59;47.08;;;22.85;;
62401;SDS011;48440;51.224;22.506;2023-08-17T08:29:26;45.22;;;21.92;;
62401;SDS011;48440;51.224;22.506;2023-08-17T08:31:51;37.80;;;20.75;;
62401;SDS011;48440;51.224;22.506;2023-08-17T08:34:18;42.17;;;21.30;;
62401;SDS011;48440;51.224;22.506;2023-08-17T08:36:43;34.97;;;19.90;;
62401;SDS011;48440;51.224;22.506;2023-08-17T08:39:09;34.05;;;19.55;;
62401;SDS011;48440;51.224;22.506;2023-08-17T08:41:35;35.55;;;19.33;;
62401;SDS011;48440;51.224;22.506;2023-08-17T08:44:02;33.25;;;18.05;;
62401;SDS011;48440;51.224;22.506;2023-08-17T08:46:29;34.90;;;18.58;;
62401;SDS011;48440;51.224;22.506;2023-08-17T08:48:57;32.45;;;18.55;;
62401;SDS011;48440;51.224;22.506;2023-08-17T08:51:25;30.90;;;18.45;;
62401;SDS011;48440;51.224;22.506;2023-08-17T08:54:02;36.42;;;17.45;;
62401;SDS011;48440;51.224;22.506;2023-08-17T08:56:33;34.20;;;16.90;;
62401;SDS011;48440;51.224;22.506;2023-08-17T08:59:02;31.60;;;17.20;;
62401;SDS011;48440;51.224;22.506;2023-08-17T09:01:32;29.52;;;16.60;;
62401;SDS011;48440;51.224;22.506;2023-08-17T09:03:58;24.92;;;16.15;;
62401;SDS011;48440;51.224;22.506;2023-08-17T09:06:26;28.80;;;15.68;;
62401;SDS011;48440;51.224;22.506;2023-08-17T09:08:52;28.67;;;16.35;;
62401;SDS011;48440;51.224;22.506;2023-08-17T09:11:18;27.50;;;15.85;;
62401;SDS011;48440;51.224;22.506;2023-08-17T09:13:43;26.48;;;16.42;;
62401;SDS011;48440;51.224;22.506;2023-08-17T09:16:09;25.00;;;16.33;;
62401;SDS011;48440;51.224;22.506;2023-08-17T09:18:34;31.50;;;16.45;;
62401;SDS011;48440;51.224;22.506;2023-08-17T09:21:00;26.90;;;16.38;;
62401;SDS011;48440;51.224;22.506;2023-08-17T09:23:26;29.65;;;16.40;;
62401;SDS011;48440;51.224;22.506;2023-08-17T09:25:52;31.33;;;17.30;;
62401;SDS011;48440;51.224;22.506;2023-08-17T09:28:23;29.35;;;16.73;;
62401;SDS011;48440;51.224;22.506;2023-08-17T09:30:49;32.85;;;17.00;;
62401;SDS011;48440;51.224;22.506;2023-08-17T09:33:22;25.15;;;16.33;;
62401;SDS011;48440;51.224;22.506;2023-08-17T09:35:50;28.48;;;16.33;;
62401;SDS011;48440;51.224;22.506;2023-08-17T09:38:16;24.58;;;15.10;;
62401;SDS011;48440;51.224;22.506;2023-08-17T09:40:42;31.73;;;15.45;;
62401;SDS011;48440;51.224;22.506;2023-08-17T09:43:08;26.40;;;15.52;;
62401;SDS011;48440;51.224;22.506;2023-08-17T09:45:35;23.60;;;14.93;;
62401;SDS011;48440;51.224;22.506;2023-08-17T09:48:02;22.33;;;14.55;;
62401;SDS011;48440;51.224;22.506;2023-08-17T09:50:28;25.83;;;14.82;;
62401;SDS011;48440;51.224;22.506;2023-08-17T09:52:54;31.35;;;15.32;;
62401;SDS011;48440;51.224;22.506;2023-08-17T09:55:21;22.38;;;14.00;;
62401;SDS011;48440;51.224;22.506;2023-08-17T09:57:51;21.92;;;14.00;;
62401;SDS011;48440;51.224;22.506;2023-08-17T10:00:17;25.38;;;14.40;;
62401;SDS011;48440;51.224;22.506;2023-08-17T10:02:44;21.10;;;13.77;;
62401;SDS011;48440;51.224;22.506;2023-08-17T10:05:14;22.45;;;13.40;;
62401;SDS011;48440;51.224;22.506;2023-08-17T10:07:45;19.70;;;13.38;;
62401;SDS011;48440;51.224;22.506;2023-08-17T10:10:14;19.35;;;13.30;;
62401;SDS011;48440;51.224;22.506;2023-08-17T10:15:57;23.00;;;13.88;;
62401;SDS011;48440;51.224;22.506;2023-08-17T10:21:22;20.55;;;13.07;;
62401;SDS011;48440;51.224;22.506;2023-08-17T10:24:01;20.40;;;13.40;;
62401;SDS011;48440;51.224;22.506;2023-08-17T10:26:28;25.02;;;13.50;;
62401;SDS011;48440;51.224;22.506;2023-08-17T10:28:54;25.25;;;12.88;;
62401;SDS011;48440;51.224;22.506;2023-08-17T10:31:23;15.95;;;11.70;;
62401;SDS011;48440;51.224;22.506;2023-08-17T10:33:49;19.90;;;10.50;;
62401;SDS011;48440;51.224;22.506;2023-08-17T10:36:16;16.85;;;10.73;;
62401;SDS011;48440;51.224;22.506;2023-08-17T10:38:42;15.15;;;10.30;;
62401;SDS011;48440;51.224;22.506;2023-08-17T10:41:08;15.45;;;10.38;;
62401;SDS011;48440;51.224;22.506;2023-08-17T10:43:52;17.48;;;9.80;;
62401;SDS011;48440;51.224;22.506;2023-08-17T10:46:36;17.00;;;9.93;;
62401;SDS011;48440;51.224;22.506;2023-08-17T10:49:04;19.20;;;10.13;;
62401;SDS011;48440;51.224;22.506;2023-08-17T10:51:31;19.02;;;11.10;;
62401;SDS011;48440;51.224;22.506;2023-08-17T10:53:58;23.75;;;11.55;;
62401;SDS011;48440;51.224;22.506;2023-08-17T10:56:29;17.85;;;10.63;;
62401;SDS011;48440;51.224;22.506;2023-08-17T10:58:54;22.60;;;11.18;;
62401;SDS011;48440;51.224;22.506;2023-08-17T11:01:35;20.80;;;11.48;;
62401;SDS011;48440;51.224;22.506;2023-08-17T11:04:09;23.25;;;11.23;;
62401;SDS011;48440;51.224;22.506;2023-08-17T11:06:36;20.70;;;11.75;;
62401;SDS011;48440;51.224;22.506;2023-08-17T11:09:05;20.73;;;11.95;;
62401;SDS011;48440;51.224;22.506;2023-08-17T11:11:32;24.83;;;11.70;;
62401;SDS011;48440;51.224;22.506;2023-08-17T11:13:57;22.45;;;10.80;;
62401;SDS011;48440;51.224;22.506;2023-08-17T11:16:22;21.92;;;11.02;;
62401;SDS011;48440;51.224;22.506;2023-08-17T11:18:48;24.52;;;10.88;;
62401;SDS011;48440;51.224;22.506;2023-08-17T11:21:14;18.73;;;10.65;;
62401;SDS011;48440;51.224;22.506;2023-08-17T11:23:41;14.27;;;10.43;;
62401;SDS011;48440;51.224;22.506;2023-08-17T11:26:07;27.27;;;10.52;;
62401;SDS011;48440;51.224;22.506;2023-08-17T11:28:33;19.17;;;9.98;;
62401;SDS011;48440;51.224;22.506;2023-08-17T11:31:03;17.67;;;10.18;;
62401;SDS011;48440;51.224;22.506;2023-08-17T11:33:33;20.25;;;11.23;;
62401;SDS011;48440;51.224;22.506;2023-08-17T11:36:04;21.63;;;10.23;;
62401;SDS011;48440;51.224;22.506;2023-08-17T11:38:34;22.58;;;10.02;;
62401;SDS011;48440;51.224;22.506;2023-08-17T11:41:04;19.70;;;9.50;;
62401;SDS011;48440;51.224;22.506;2023-08-17T11:43:34;17.60;;;9.48;;
62401;SDS011;48440;51.224;22.506;2023-08-17T11:46:00;18.95;;;10.52;;
62401;SDS011;48440;51.224;22.506;2023-08-17T11:48:26;16.05;;;10.30;;
62401;SDS011;48440;51.224;22.506;2023-08-17T11:50:52;17.00;;;10.55;;
62401;SDS011;48440;51.224;22.506;2023-08-17T11:53:19;16.65;;;10.25;;
62401;SDS011;48440;51.224;22.506;2023-08-17T11:55:44;17.40;;;10.18;;
62401;SDS011;48440;51.224;22.506;2023-08-17T11:58:10;14.90;;;9.88;;
62401;SDS011;48440;51.224;22.506;2023-08-17T12:00:36;16.08;;;9.88;;
62401;SDS011;48440;51.224;22.506;2023-08-17T12:03:04;14.15;;;10.23;;
62401;SDS011;48440;51.224;22.506;2023-08-17T12:05:30;19.95;;;9.85;;
62401;SDS011;48440;51.224;22.506;2023-08-17T12:07:57;20.70;;;10.48;;
62401;SDS011;48440;51.224;22.506;2023-08-17T12:10:24;19.38;;;10.45;;
62401;SDS011;48440;51.224;22.506;2023-08-17T12:12:52;14.25;;;10.32;;
62401;SDS011;48440;51.224;22.506;2023-08-17T12:15:18;19.23;;;10.70;;
62401;SDS011;48440;51.224;22.506;2023-08-17T12:17:45;16.30;;;10.65;;
62401;SDS011;48440;51.224;22.506;2023-08-17T12:20:15;13.90;;;10.18;;
62401;SDS011;48440;51.224;22.506;2023-08-17T12:22:42;16.95;;;10.13;;
62401;SDS011;48440;51.224;22.506;2023-08-17T12:25:08;16.05;;;10.15;;
62401;SDS011;48440;51.224;22.506;2023-08-17T12:27:35;14.80;;;9.93;;
62401;SDS011;48440;51.224;22.506;2023-08-17T12:30:01;19.13;;;10.20;;
62401;SDS011;48440;51.224;22.506;2023-08-17T12:32:26;13.68;;;10.50;;
62401;SDS011;48440;51.224;22.506;2023-08-17T12:34:52;19.55;;;11.07;;
62401;SDS011;48440;51.224;22.506;2023-08-17T12:37:20;14.85;;;10.98;;
62401;SDS011;48440;51.224;22.506;2023-08-17T12:39:46;18.60;;;10.93;;
62401;SDS011;48440;51.224;22.506;2023-08-17T12:42:13;17.17;;;11.27;;
62401;SDS011;48440;51.224;22.506;2023-08-17T12:44:39;20.92;;;11.65;;
62401;SDS011;48440;51.224;22.506;2023-08-17T12:47:07;16.15;;;10.82;;
62401;SDS011;48440;51.224;22.506;2023-08-17T12:49:32;19.85;;;11.48;;
62401;SDS011;48440;51.224;22.506;2023-08-17T12:51:58;15.35;;;10.65;;
62401;SDS011;48440;51.224;22.506;2023-08-17T12:54:23;16.45;;;11.38;;
62401;SDS011;48440;51.224;22.506;2023-08-17T12:56:48;16.55;;;11.15;;
62401;SDS011;48440;51.224;22.506;2023-08-17T12:59:17;15.27;;;10.77;;
62401;SDS011;48440;51.224;22.506;2023-08-17T13:04:23;16.10;;;10.50;;
62401;SDS011;48440;51.224;22.506;2023-08-17T13:07:12;15.98;;;10.35;;
62401;SDS011;48440;51.224;22.506;2023-08-17T13:10:08;15.07;;;10.25;;
62401;SDS011;48440;51.224;22.506;2023-08-17T13:12:33;14.50;;;9.70;;
62401;SDS011;48440;51.224;22.506;2023-08-17T13:14:58;13.43;;;9.68;;
62401;SDS011;48440;51.224;22.506;2023-08-17T13:17:24;18.08;;;9.88;;
62401;SDS011;48440;51.224;22.506;2023-08-17T13:19:49;14.07;;;9.82;;
62401;SDS011;48440;51.224;22.506;2023-08-17T13:22:15;15.70;;;9.98;;
62401;SDS011;48440;51.224;22.506;2023-08-17T13:24:40;16.92;;;10.18;;
62401;SDS011;48440;51.224;22.506;2023-08-17T13:27:06;14.88;;;9.88;;
62401;SDS011;48440;51.224;22.506;2023-08-17T13:29:32;15.93;;;10.02;;
62401;SDS011;48440;51.224;22.506;2023-08-17T13:31:57;12.65;;;9.90;;
62401;SDS011;48440;51.224;22.506;2023-08-17T13:34:23;13.07;;;9.60;;
62401;SDS011;48440;51.224;22.506;2023-08-17T13:36:48;19.30;;;9.88;;
62401;SDS011;48440;51.224;22.506;2023-08-17T13:39:14;14.35;;;10.18;;
62401;SDS011;48440;51.224;22.506;2023-08-17T13:41:40;12.00;;;9.73;;
62401;SDS011;48440;51.224;22.506;2023-08-17T13:44:06;12.75;;;9.98;;
62401;SDS011;48440;51.224;22.506;2023-08-17T13:46:31;14.95;;;10.02;;
62401;SDS011;48440;51.224;22.506;2023-08-17T13:48:57;22.15;;;10.27;;
62401;SDS011;48440;51.224;22.506;2023-08-17T13:51:22;16.60;;;10.00;;
62401;SDS011;48440;51.224;22.506;2023-08-17T13:53:48;15.32;;;10.10;;
62401;SDS011;48440;51.224;22.506;2023-08-17T13:56:13;13.52;;;10.02;;
62401;SDS011;48440;51.224;22.506;2023-08-17T13:58:38;12.82;;;9.73;;
62401;SDS011;48440;51.224;22.506;2023-08-17T14:01:04;15.25;;;9.85;;
62401;SDS011;48440;51.224;22.506;2023-08-17T14:03:29;15.95;;;10.07;;
62401;SDS011;48440;51.224;22.506;2023-08-17T14:05:55;14.52;;;9.95;;
62401;SDS011;48440;51.224;22.506;2023-08-17T14:08:21;14.73;;;10.25;;
62401;SDS011;48440;51.224;22.506;2023-08-17T14:10:46;12.60;;;10.05;;
62401;SDS011;48440;51.224;22.506;2023-08-17T14:13:12;12.80;;;9.13;;